DAUA

Touat Cheikh Sidi Mohamed Belkebir Airport

Algeria
METAR DAUA 181300Z 05011KT CAVOK 23/M02 Q1023
Observed Flight Rules
Dec-18 @ 13:00 UTC (an hour ago) Visual Flight Rules
Wind Visibility Clouds
50° at 11 knots 10,000+ meters
  • Clear skies
Temperatures Readings
Current 23°C / 73°F
Dewpoint -2°C / 28°F
Humidity 19%
Altimeter 30.21" Hg
Pressure 1023 hPa
Elevation 263
METAR DAUA 181300Z 05011KT CAVOK 23/M02 Q1023
Observed Flight Rules
Dec-18 @ 13:00 UTC
(an hour ago)
VFR
Wind Visibility
50° at 11 knots 10,000+ meters
Clouds
  • Clear skies
Temperature Dewpoint
23°C / 73°F -2°C / 28°F
Humidity Altimeter Pressure
19% 30.21" Hg 1023 hPa